createdAt,value
2019-04-30T00:01:00.673Z,100.00
2019-04-30T00:03:31.902Z,100.00
2019-04-30T00:05:58.606Z,100.00
2019-04-30T00:08:29.839Z,100.00
2019-04-30T00:10:55.534Z,100.00
2019-04-30T00:13:22.458Z,100.00
2019-04-30T00:15:52.700Z,100.00
2019-04-30T00:18:17.833Z,100.00
2019-04-30T00:20:45.359Z,100.00
2019-04-30T00:23:13.120Z,100.00
2019-04-30T00:25:39.781Z,100.00
2019-04-30T00:28:08.766Z,100.00
2019-04-30T00:30:39.338Z,100.00
2019-04-30T00:33:05.803Z,100.00
2019-04-30T00:35:35.408Z,100.00
2019-04-30T00:38:01.988Z,100.00
2019-04-30T00:40:30.218Z,100.00
2019-04-30T00:43:00.116Z,100.00
2019-04-30T00:45:39.958Z,100.00
2019-04-30T00:48:27.916Z,100.00
2019-04-30T00:50:52.085Z,100.00
2019-04-30T00:53:18.975Z,100.00
2019-04-30T00:55:48.457Z,100.00
2019-04-30T00:58:17.732Z,100.00
2019-04-30T01:00:52.314Z,100.00
2019-04-30T01:03:22.688Z,100.00
2019-04-30T01:05:49.350Z,100.00
2019-04-30T01:08:16.132Z,100.00
2019-04-30T01:10:42.822Z,100.00
2019-04-30T01:13:11.938Z,100.00
2019-04-30T01:15:39.082Z,100.00
2019-04-30T01:18:05.959Z,100.00
2019-04-30T01:20:33.018Z,100.00
2019-04-30T01:23:03.207Z,100.00
2019-04-30T01:25:28.878Z,100.00
2019-04-30T01:27:58.525Z,100.00
2019-04-30T01:30:25.587Z,100.00
2019-04-30T01:32:56.775Z,100.00
2019-04-30T01:35:23.898Z,100.00
2019-04-30T01:37:49.853Z,100.00
2019-04-30T01:40:18.804Z,100.00
2019-04-30T01:42:48.550Z,100.00
2019-04-30T01:45:14.516Z,100.00
2019-04-30T01:47:41.303Z,100.00
2019-04-30T01:50:09.253Z,100.00
2019-04-30T01:52:54.274Z,100.00
2019-04-30T01:55:33.646Z,100.00
2019-04-30T01:58:25.982Z,100.00
2019-04-30T02:01:03.194Z,100.00
2019-04-30T02:03:29.848Z,100.00
2019-04-30T02:05:56.914Z,100.00
2019-04-30T02:08:23.669Z,100.00
2019-04-30T02:10:51.411Z,100.00
2019-04-30T02:13:18.882Z,100.00
2019-04-30T02:15:45.778Z,100.00
2019-04-30T02:18:12.489Z,100.00
2019-04-30T02:20:39.295Z,100.00
2019-04-30T02:23:09.684Z,100.00
2019-04-30T02:25:36.809Z,100.00
2019-04-30T02:28:03.493Z,100.00
2019-04-30T02:30:31.032Z,100.00
2019-04-30T02:33:00.561Z,100.00
2019-04-30T02:35:43.627Z,100.00
2019-04-30T02:38:20.120Z,100.00
2019-04-30T02:40:46.575Z,100.00
2019-04-30T02:43:13.766Z,100.00
2019-04-30T02:45:41.280Z,100.00
2019-04-30T02:48:11.489Z,100.00
2019-04-30T02:50:39.353Z,100.00
2019-04-30T02:53:29.266Z,100.00
2019-04-30T02:55:56.019Z,100.00
2019-04-30T02:58:22.957Z,100.00
2019-04-30T03:00:49.724Z,100.00
2019-04-30T03:03:16.406Z,100.00
2019-04-30T03:05:43.280Z,100.00
2019-04-30T03:08:09.966Z,100.00
2019-04-30T03:10:36.662Z,100.00
2019-04-30T03:13:03.499Z,100.00
2019-04-30T03:15:30.273Z,100.00
2019-04-30T03:18:13.029Z,100.00
2019-04-30T03:20:53.916Z,100.00
2019-04-30T03:23:20.714Z,100.00
2019-04-30T03:25:49.983Z,100.00
2019-04-30T03:28:15.974Z,100.00
2019-04-30T03:30:42.850Z,100.00
2019-04-30T03:33:12.854Z,100.00
2019-04-30T03:35:46.588Z,100.00
2019-04-30T03:38:09.452Z,100.00
2019-04-30T03:40:35.626Z,100.00
2019-04-30T03:43:03.627Z,100.00
2019-04-30T03:45:30.525Z,100.00
2019-04-30T03:47:59.615Z,100.00
2019-04-30T03:50:25.892Z,100.00
2019-04-30T03:52:52.612Z,100.00
2019-04-30T03:55:20.605Z,100.00
2019-04-30T03:57:51.679Z,100.00
2019-04-30T04:00:33.583Z,100.00
2019-04-30T04:03:00.282Z,100.00
2019-04-30T04:05:52.873Z,100.00
2019-04-30T04:08:43.236Z,100.00
2019-04-30T04:11:16.381Z,100.00
2019-04-30T04:13:43.078Z,100.00
2019-04-30T04:16:09.943Z,100.00
2019-04-30T04:18:36.885Z,100.00
2019-04-30T04:21:11.321Z,100.00
2019-04-30T04:23:32.980Z,100.00
2019-04-30T04:25:59.777Z,100.00
2019-04-30T04:28:29.754Z,100.00
2019-04-30T04:30:56.329Z,100.00
2019-04-30T04:33:23.022Z,100.00
2019-04-30T04:35:50.152Z,100.00
2019-04-30T04:38:16.921Z,100.00
2019-04-30T04:40:43.688Z,100.00
2019-04-30T04:43:10.616Z,100.00
2019-04-30T04:45:40.503Z,100.00
2019-04-30T04:48:06.157Z,100.00
2019-04-30T04:50:32.925Z,100.00
2019-04-30T04:52:59.716Z,100.00
2019-04-30T04:55:26.404Z,100.00
2019-04-30T04:57:53.179Z,100.00
2019-04-30T05:00:20.176Z,100.00
2019-04-30T05:02:55.923Z,100.00
2019-04-30T05:05:22.756Z,100.00
2019-04-30T05:07:49.441Z,100.00
2019-04-30T05:10:16.233Z,100.00
2019-04-30T05:12:43.003Z,100.00
2019-04-30T05:15:10.462Z,100.00
2019-04-30T05:17:39.334Z,100.00
2019-04-30T05:20:06.870Z,100.00
2019-04-30T05:22:33.654Z,100.00
2019-04-30T05:25:00.350Z,100.00
2019-04-30T05:27:28.044Z,100.00
2019-04-30T05:29:54.733Z,100.00
2019-04-30T05:32:21.400Z,100.00
2019-04-30T05:34:50.001Z,100.00
2019-04-30T05:37:18.391Z,100.00
2019-04-30T05:39:45.286Z,100.00
2019-04-30T05:42:12.069Z,100.00
2019-04-30T05:44:39.584Z,100.00
2019-04-30T05:47:06.381Z,100.00
2019-04-30T05:49:33.157Z,100.00
2019-04-30T05:51:59.860Z,100.00
2019-04-30T05:54:26.681Z,100.00
2019-04-30T05:56:53.466Z,100.00
2019-04-30T05:59:20.690Z,100.00
2019-04-30T06:01:48.672Z,100.00
2019-04-30T06:04:19.388Z,100.00
2019-04-30T06:06:46.157Z,100.00
2019-04-30T06:09:31.011Z,100.00
2019-04-30T06:12:07.799Z,100.00
2019-04-30T06:14:48.803Z,100.00
2019-04-30T06:17:19.559Z,100.00
2019-04-30T06:19:46.110Z,100.00
2019-04-30T06:22:12.887Z,100.00
2019-04-30T06:24:39.861Z,100.00
2019-04-30T06:27:06.751Z,100.00
2019-04-30T06:29:33.961Z,100.00
2019-04-30T06:32:00.877Z,100.00
2019-04-30T06:34:29.464Z,100.00
2019-04-30T06:36:57.118Z,100.00
2019-04-30T06:39:24.064Z,100.00
2019-04-30T06:41:51.538Z,100.00
2019-04-30T06:44:19.529Z,100.00
2019-04-30T06:46:48.653Z,100.00
2019-04-30T06:49:15.406Z,100.00
2019-04-30T06:51:42.202Z,100.00
2019-04-30T06:54:11.083Z,100.00
2019-04-30T06:56:38.758Z,100.00
2019-04-30T06:59:05.632Z,100.00
2019-04-30T07:01:32.388Z,100.00
2019-04-30T07:04:01.012Z,100.00
2019-04-30T07:06:32.324Z,100.00
2019-04-30T07:09:21.926Z,100.00
2019-04-30T07:11:59.274Z,100.00
2019-04-30T07:14:26.305Z,100.00
2019-04-30T07:16:53.068Z,100.00
2019-04-30T07:19:31.865Z,100.00
2019-04-30T07:21:49.644Z,100.00
2019-04-30T07:24:16.542Z,100.00
2019-04-30T07:26:43.333Z,100.00
2019-04-30T07:29:10.119Z,100.00
2019-04-30T07:31:39.130Z,100.00
2019-04-30T07:34:05.560Z,100.00
2019-04-30T07:36:45.310Z,100.00
2019-04-30T07:39:01.037Z,100.00
2019-04-30T07:41:30.884Z,100.00
2019-04-30T07:43:56.863Z,100.00
2019-04-30T07:46:23.527Z,100.00
2019-04-30T07:53:06.364Z,100.00
2019-04-30T07:55:31.671Z,100.00
2019-04-30T07:57:59.140Z,100.00
2019-04-30T08:00:26.177Z,100.00
2019-04-30T08:03:04.861Z,100.00
2019-04-30T08:05:40.142Z,100.00
2019-04-30T08:08:17.709Z,100.00
2019-04-30T08:10:34.978Z,100.00
2019-04-30T08:13:10.065Z,100.00
2019-04-30T08:15:30.405Z,100.00
2019-04-30T08:18:03.658Z,100.00
2019-04-30T08:20:26.056Z,100.00
2019-04-30T08:22:52.734Z,100.00
2019-04-30T08:25:21.909Z,100.00
2019-04-30T08:27:49.255Z,100.00
2019-04-30T08:30:23.949Z,100.00
2019-04-30T08:32:44.901Z,100.00
2019-04-30T08:35:12.478Z,100.00
2019-04-30T08:37:39.162Z,100.00
2019-04-30T08:40:06.158Z,100.00
2019-04-30T08:42:34.273Z,100.00
2019-04-30T08:45:01.616Z,100.00
2019-04-30T08:47:29.136Z,100.00
2019-04-30T08:49:55.873Z,100.00
2019-04-30T08:52:22.737Z,100.00
2019-04-30T08:54:49.713Z,100.00
2019-04-30T08:57:18.888Z,100.00
2019-04-30T08:59:45.163Z,100.00
2019-04-30T09:02:15.846Z,100.00
2019-04-30T09:04:40.405Z,100.00
2019-04-30T09:07:10.128Z,100.00
2019-04-30T09:09:35.801Z,100.00
2019-04-30T09:12:02.482Z,100.00
2019-04-30T09:14:29.867Z,100.00
2019-04-30T09:16:56.758Z,100.00
2019-04-30T09:19:23.470Z,100.00
2019-04-30T09:21:51.202Z,100.00
2019-04-30T09:24:19.119Z,100.00
2019-04-30T09:26:49.090Z,94.28
2019-04-30T09:29:15.494Z,100.00
2019-04-30T09:31:42.288Z,100.00
2019-04-30T09:34:17.077Z,100.00
2019-04-30T09:36:39.168Z,100.00
2019-04-30T09:39:06.169Z,99.48
2019-04-30T09:41:33.533Z,98.84
2019-04-30T09:44:00.571Z,96.91
2019-04-30T09:46:29.827Z,100.00
2019-04-30T09:48:56.027Z,95.75
2019-04-30T09:51:24.692Z,97.77
2019-04-30T09:53:59.237Z,100.00
2019-04-30T09:56:20.955Z,100.00
2019-04-30T09:58:49.256Z,94.73
2019-04-30T10:01:15.993Z,87.77
2019-04-30T10:03:43.196Z,92.36
2019-04-30T10:06:10.165Z,89.84
2019-04-30T10:08:47.889Z,89.60
2019-04-30T10:11:28.086Z,90.61
2019-04-30T10:13:54.772Z,89.11
2019-04-30T10:16:31.489Z,93.41
2019-04-30T10:18:59.248Z,90.00
2019-04-30T10:21:28.913Z,87.25
2019-04-30T10:24:10.280Z,89.29
2019-04-30T10:26:24.487Z,91.80
2019-04-30T10:28:51.677Z,89.20
2019-04-30T10:31:18.771Z,86.42
2019-04-30T10:33:48.548Z,86.55
2019-04-30T10:36:15.445Z,92.51
2019-04-30T10:38:42.424Z,95.39
2019-04-30T10:41:09.206Z,92.62
2019-04-30T10:43:35.876Z,91.68
2019-04-30T10:46:02.789Z,97.60
2019-04-30T10:48:29.594Z,88.42
2019-04-30T10:50:56.368Z,84.75
2019-04-30T10:53:23.084Z,86.55
2019-04-30T10:55:49.860Z,84.68
2019-04-30T10:58:16.553Z,81.14
2019-04-30T11:00:43.849Z,79.99
2019-04-30T11:03:19.169Z,80.79
2019-04-30T11:05:41.266Z,81.15
2019-04-30T11:08:08.294Z,82.77
2019-04-30T11:10:35.070Z,77.33
2019-04-30T11:13:01.998Z,84.63
2019-04-30T11:15:29.322Z,87.99
2019-04-30T11:17:56.195Z,78.04
2019-04-30T11:20:23.448Z,75.71
2019-04-30T11:22:50.702Z,81.59
2019-04-30T11:25:19.604Z,87.10
2019-04-30T11:27:46.770Z,75.10
2019-04-30T11:30:23.333Z,74.50
2019-04-30T11:32:43.434Z,67.94
2019-04-30T11:35:10.770Z,70.89
2019-04-30T11:37:37.654Z,66.72
2019-04-30T11:40:04.601Z,73.44
2019-04-30T11:42:32.381Z,74.13
2019-04-30T11:44:59.140Z,69.18
2019-04-30T11:47:30.252Z,76.39
2019-04-30T11:49:57.049Z,80.49
2019-04-30T11:52:25.147Z,74.91
2019-04-30T11:54:54.468Z,94.83
2019-04-30T11:57:20.830Z,93.48
2019-04-30T11:59:47.980Z,98.33
2019-04-30T12:02:21.199Z,99.63
2019-04-30T12:04:49.449Z,100.00
2019-04-30T12:07:24.220Z,100.00
2019-04-30T12:09:59.567Z,100.00
2019-04-30T12:12:26.258Z,100.00
2019-04-30T12:14:52.922Z,100.00
2019-04-30T12:17:19.853Z,100.00
2019-04-30T12:19:48.847Z,100.00
2019-04-30T12:22:16.062Z,100.00
2019-04-30T12:24:42.871Z,100.00
2019-04-30T12:27:09.637Z,100.00
2019-04-30T12:29:36.389Z,100.00
2019-04-30T12:32:04.368Z,100.00
2019-04-30T12:34:31.087Z,100.00
2019-04-30T12:36:59.649Z,100.00
2019-04-30T12:39:29.798Z,100.00
2019-04-30T12:41:55.587Z,100.00
2019-04-30T12:44:22.504Z,99.47
2019-04-30T12:46:49.213Z,96.33
2019-04-30T12:49:15.906Z,100.00
2019-04-30T12:52:02.403Z,100.00
2019-04-30T12:54:36.986Z,100.00
2019-04-30T12:57:15.962Z,98.35
2019-04-30T12:59:42.691Z,100.00
2019-04-30T13:02:09.466Z,100.00
2019-04-30T13:04:36.361Z,100.00
2019-04-30T13:07:03.820Z,100.00
2019-04-30T13:09:31.804Z,100.00
2019-04-30T13:12:00.579Z,100.00
2019-04-30T13:14:29.751Z,100.00
2019-04-30T13:16:56.113Z,100.00
2019-04-30T13:19:22.803Z,98.64
2019-04-30T13:21:49.590Z,99.75
2019-04-30T13:24:16.348Z,100.00
2019-04-30T13:26:43.055Z,100.00
2019-04-30T13:29:15.801Z,100.00
2019-04-30T13:31:42.504Z,100.00
2019-04-30T13:34:29.852Z,100.00
2019-04-30T13:36:56.231Z,100.00
2019-04-30T13:39:29.295Z,99.87
2019-04-30T13:42:00.233Z,96.96
2019-04-30T13:44:35.793Z,98.08
2019-04-30T13:47:03.585Z,91.81
2019-04-30T13:49:30.331Z,93.94
2019-04-30T13:51:58.069Z,91.01
2019-04-30T13:54:24.766Z,92.00
2019-04-30T13:56:51.553Z,97.72
2019-04-30T13:59:18.465Z,96.22
2019-04-30T14:01:45.342Z,94.52
2019-04-30T14:04:33.925Z,96.21
2019-04-30T14:07:10.622Z,99.30
2019-04-30T14:09:37.404Z,84.95
2019-04-30T14:12:04.197Z,91.32
2019-04-30T14:14:30.893Z,90.80
2019-04-30T14:16:58.673Z,94.25
2019-04-30T14:19:26.345Z,94.06
2019-04-30T14:21:53.027Z,89.57
2019-04-30T14:24:19.819Z,94.09
2019-04-30T14:26:46.603Z,91.16
2019-04-30T14:29:13.407Z,95.24
2019-04-30T14:31:40.158Z,100.00
2019-04-30T14:34:06.982Z,100.00
2019-04-30T14:36:33.673Z,100.00
2019-04-30T14:39:13.752Z,100.00
2019-04-30T14:41:32.440Z,100.00
2019-04-30T14:44:09.739Z,100.00
2019-04-30T14:46:47.081Z,100.00
2019-04-30T14:49:40.702Z,100.00
2019-04-30T14:52:09.368Z,100.00
2019-04-30T14:54:58.778Z,100.00
2019-04-30T14:57:51.068Z,100.00
2019-04-30T15:00:39.582Z,100.00
2019-04-30T15:03:09.499Z,100.00
2019-04-30T15:05:40.615Z,100.00
2019-04-30T15:08:05.168Z,100.00
2019-04-30T15:10:31.955Z,100.00
2019-04-30T15:13:00.206Z,100.00
2019-04-30T15:15:29.228Z,100.00
2019-04-30T15:17:56.036Z,100.00
2019-04-30T15:20:22.822Z,100.00
2019-04-30T15:22:59.774Z,100.00
2019-04-30T15:25:34.070Z,100.00
2019-04-30T15:27:55.057Z,100.00
2019-04-30T15:30:22.023Z,100.00
2019-04-30T15:32:51.202Z,100.00
2019-04-30T15:35:19.629Z,100.00
2019-04-30T15:37:48.832Z,100.00
2019-04-30T15:40:15.738Z,100.00
2019-04-30T15:42:44.529Z,100.00
2019-04-30T15:45:12.652Z,100.00
2019-04-30T15:47:39.415Z,100.00
2019-04-30T15:50:06.213Z,100.00
2019-04-30T15:52:32.990Z,100.00
2019-04-30T15:54:59.770Z,100.00
2019-04-30T15:57:26.552Z,100.00
2019-04-30T15:59:53.255Z,100.00
2019-04-30T16:02:53.489Z,100.00
2019-04-30T16:05:29.464Z,100.00
2019-04-30T16:08:05.165Z,100.00
2019-04-30T16:11:08.194Z,100.00
2019-04-30T16:13:54.749Z,100.00
2019-04-30T16:16:22.938Z,100.00
2019-04-30T16:18:49.943Z,100.00
2019-04-30T16:21:16.724Z,100.00
2019-04-30T16:23:43.400Z,100.00
2019-04-30T16:26:10.162Z,100.00
2019-04-30T16:28:38.978Z,100.00
2019-04-30T16:31:05.786Z,100.00
2019-04-30T16:33:32.563Z,100.00
2019-04-30T16:36:01.405Z,100.00
2019-04-30T16:38:28.984Z,100.00
2019-04-30T16:40:55.869Z,100.00
2019-04-30T16:43:22.680Z,100.00
2019-04-30T16:45:49.752Z,100.00
2019-04-30T16:48:19.287Z,100.00
2019-04-30T16:50:46.060Z,100.00
2019-04-30T16:53:12.810Z,100.00
2019-04-30T16:55:39.582Z,100.00
2019-04-30T16:58:06.280Z,100.00
2019-04-30T17:00:33.568Z,100.00
2019-04-30T17:03:05.017Z,100.00
2019-04-30T17:05:40.196Z,100.00
2019-04-30T17:08:16.213Z,100.00
2019-04-30T17:10:50.542Z,100.00
2019-04-30T17:13:23.224Z,100.00
2019-04-30T17:15:52.045Z,100.00
2019-04-30T17:18:19.168Z,100.00
2019-04-30T17:20:49.262Z,100.00
2019-04-30T17:23:19.296Z,100.00
2019-04-30T17:25:49.250Z,100.00
2019-04-30T17:28:21.004Z,100.00
2019-04-30T17:30:49.281Z,100.00
2019-04-30T17:33:17.365Z,100.00
2019-04-30T17:35:45.498Z,100.00
2019-04-30T17:38:13.523Z,100.00
2019-04-30T17:40:41.542Z,100.00
2019-04-30T17:43:08.329Z,100.00
2019-04-30T17:45:35.116Z,100.00
2019-04-30T17:48:01.961Z,100.00
2019-04-30T17:50:29.569Z,100.00
2019-04-30T17:52:56.311Z,100.00
2019-04-30T17:55:23.035Z,100.00
2019-04-30T17:57:49.811Z,100.00
2019-04-30T18:00:21.631Z,100.00
2019-04-30T18:02:45.544Z,100.00
2019-04-30T18:05:12.789Z,100.00
2019-04-30T18:07:39.979Z,100.00
2019-04-30T18:10:09.172Z,100.00
2019-04-30T18:12:36.082Z,100.00
2019-04-30T18:15:04.126Z,100.00
2019-04-30T18:17:31.593Z,100.00
2019-04-30T18:20:13.557Z,100.00
2019-04-30T18:22:59.969Z,100.00
2019-04-30T18:25:40.225Z,100.00
2019-04-30T18:28:09.166Z,100.00
2019-04-30T18:30:38.969Z,100.00
2019-04-30T18:33:06.088Z,100.00
2019-04-30T18:35:34.083Z,100.00
2019-04-30T18:38:01.243Z,100.00
2019-04-30T18:40:29.603Z,100.00
2019-04-30T18:42:56.493Z,100.00
2019-04-30T18:45:23.495Z,100.00
2019-04-30T18:47:50.207Z,100.00
2019-04-30T18:50:18.939Z,100.00
2019-04-30T18:52:50.330Z,100.00
2019-04-30T18:55:15.629Z,100.00
2019-04-30T18:57:42.433Z,100.00
2019-04-30T19:00:09.977Z,100.00
2019-04-30T19:02:38.351Z,100.00
2019-04-30T19:05:09.525Z,100.00
2019-04-30T19:11:23.341Z,100.00
2019-04-30T19:14:13.881Z,100.00
2019-04-30T19:17:02.905Z,100.00
2019-04-30T19:19:42.463Z,100.00
2019-04-30T19:22:09.606Z,100.00
2019-04-30T19:24:36.682Z,100.00
2019-04-30T19:27:03.533Z,100.00
2019-04-30T19:29:30.202Z,100.00
2019-04-30T19:31:57.026Z,100.00
2019-04-30T19:34:23.728Z,100.00
2019-04-30T19:36:50.630Z,100.00
2019-04-30T19:39:19.499Z,100.00
2019-04-30T19:41:46.546Z,100.00
2019-04-30T19:44:13.235Z,100.00
2019-04-30T19:46:41.439Z,100.00
2019-04-30T19:49:09.848Z,100.00
2019-04-30T19:51:36.728Z,100.00
2019-04-30T19:54:03.710Z,100.00
2019-04-30T19:56:32.862Z,100.00
2019-04-30T19:59:02.915Z,100.00
2019-04-30T20:01:28.703Z,100.00
2019-04-30T20:03:55.521Z,100.00
2019-04-30T20:06:22.326Z,100.00
2019-04-30T20:08:49.315Z,100.00
2019-04-30T20:11:16.116Z,100.00
2019-04-30T20:13:42.904Z,100.00
2019-04-30T20:16:10.143Z,100.00
2019-04-30T20:18:38.995Z,100.00
2019-04-30T20:21:09.938Z,100.00
2019-04-30T20:23:37.465Z,100.00
2019-04-30T20:26:04.241Z,100.00
2019-04-30T20:28:39.124Z,100.00
2019-04-30T20:31:00.061Z,100.00
2019-04-30T20:33:28.895Z,100.00
2019-04-30T20:35:55.305Z,100.00
2019-04-30T20:38:32.268Z,100.00
2019-04-30T20:41:02.796Z,100.00
2019-04-30T20:43:28.535Z,100.00
2019-04-30T20:45:55.422Z,100.00
2019-04-30T20:48:22.185Z,100.00
2019-04-30T20:50:48.865Z,100.00
2019-04-30T20:53:19.674Z,100.00
2019-04-30T20:55:46.258Z,100.00
2019-04-30T20:58:13.693Z,100.00
2019-04-30T21:00:40.461Z,100.00
2019-04-30T21:03:09.553Z,100.00
2019-04-30T21:05:36.193Z,100.00
2019-04-30T21:08:04.057Z,100.00
2019-04-30T21:10:30.725Z,100.00
2019-04-30T21:12:57.392Z,100.00
2019-04-30T21:15:24.198Z,100.00
2019-04-30T21:17:50.867Z,100.00
2019-04-30T21:20:19.361Z,100.00
2019-04-30T21:22:46.366Z,100.00
2019-04-30T21:25:13.815Z,100.00
2019-04-30T21:27:40.605Z,100.00
2019-04-30T21:30:07.522Z,100.00
2019-04-30T21:32:52.514Z,100.00
2019-04-30T21:35:43.852Z,100.00
2019-04-30T21:38:10.642Z,100.00
2019-04-30T21:40:39.309Z,100.00
2019-04-30T21:43:06.061Z,100.00
2019-04-30T21:45:32.745Z,100.00
2019-04-30T21:48:01.502Z,100.00
2019-04-30T21:50:29.637Z,100.00
2019-04-30T21:52:56.603Z,100.00
2019-04-30T21:55:23.262Z,100.00
2019-04-30T21:57:49.948Z,100.00
2019-04-30T22:00:25.023Z,100.00
2019-04-30T22:02:53.703Z,100.00
2019-04-30T22:05:20.710Z,100.00
2019-04-30T22:07:48.617Z,100.00
2019-04-30T22:10:15.765Z,100.00
2019-04-30T22:12:42.450Z,100.00
2019-04-30T22:15:12.813Z,100.00
2019-04-30T22:17:39.493Z,100.00
2019-04-30T22:20:07.863Z,100.00
2019-04-30T22:22:35.066Z,100.00
2019-04-30T22:25:02.009Z,100.00
2019-04-30T22:27:29.665Z,100.00
2019-04-30T22:29:56.372Z,100.00
2019-04-30T22:32:24.529Z,100.00
2019-04-30T22:34:53.101Z,100.00
2019-04-30T22:37:20.110Z,100.00
2019-04-30T22:39:52.949Z,100.00
2019-04-30T22:42:39.718Z,100.00
2019-04-30T22:45:27.049Z,100.00
2019-04-30T22:47:53.831Z,100.00
2019-04-30T22:50:20.603Z,100.00
2019-04-30T22:52:47.289Z,100.00
2019-04-30T22:55:14.163Z,100.00
2019-04-30T22:57:40.872Z,100.00
2019-04-30T23:00:11.045Z,100.00
2019-04-30T23:03:05.060Z,100.00
2019-04-30T23:08:14.566Z,100.00
2019-04-30T23:10:41.242Z,100.00
2019-04-30T23:13:08.028Z,100.00
2019-04-30T23:15:35.010Z,100.00
2019-04-30T23:18:01.801Z,100.00
2019-04-30T23:20:28.886Z,100.00
2019-04-30T23:22:55.575Z,100.00
2019-04-30T23:25:22.264Z,100.00
2019-04-30T23:27:48.928Z,100.00
2019-04-30T23:30:16.361Z,100.00
2019-04-30T23:32:43.017Z,100.00
2019-04-30T23:35:10.116Z,100.00
2019-04-30T23:37:37.510Z,100.00
2019-04-30T23:40:27.017Z,100.00
2019-04-30T23:42:54.156Z,100.00
2019-04-30T23:45:21.063Z,100.00
2019-04-30T23:47:47.927Z,100.00
2019-04-30T23:50:14.748Z,100.00
2019-04-30T23:52:41.416Z,100.00
2019-04-30T23:55:08.193Z,100.00
2019-04-30T23:57:34.974Z,100.00
